Time;durP1;ratioP1;P1;durP2;ratioP2;P2;SDS_P1;SDS_P2;PMS_P1;PMS_P2;Temp;Humidity;BMP_temperature;BMP_pressure;BME280_temperature;BME280_humidity;BME280_pressure;Samples;Min_cycle;Max_cycle;Signal;HPM_P1;HPM_P2
2024/01/24 00:01:56;;;;;;;3.87;1.83;;;6.90;99.90;;;;;;5016282;28;20215;-92
2024/01/24 00:04:22;;;;;;;3.23;1.27;;;7.00;99.90;;;;;;5016325;28;20179;-90
2024/01/24 00:06:58;;;;;;;2.70;1.10;;;7.00;99.90;;;;;;5017476;28;20187;-87
2024/01/24 00:09:24;;;;;;;5.67;1.53;;;7.00;99.90;;;;;;5017824;28;20179;-86
2024/01/24 00:11:50;;;;;;;3.43;1.33;;;7.10;99.90;;;;;;5018493;28;20214;-90
2024/01/24 00:14:16;;;;;;;5.43;1.50;;;7.10;99.90;;;;;;5021879;28;20183;-89
2024/01/24 00:16:42;;;;;;;5.10;1.20;;;7.10;99.90;;;;;;5016454;28;20190;-91
2024/01/24 00:19:09;;;;;;;3.53;1.10;;;7.20;99.90;;;;;;5017278;28;20182;-90
2024/01/24 00:21:37;;;;;;;4.00;1.10;;;7.20;99.90;;;;;;5016365;28;20223;-92
2024/01/24 00:24:03;;;;;;;4.40;1.17;;;7.20;99.90;;;;;;5023134;28;20187;-91
2024/01/24 00:26:29;;;;;;;4.00;1.20;;;7.20;99.90;;;;;;5016924;28;20191;-95
2024/01/24 00:28:55;;;;;;;2.30;1.13;;;7.30;99.90;;;;;;5014806;28;20705;-92
2024/01/24 00:31:21;;;;;;;2.97;1.00;;;7.30;99.90;;;;;;5019807;28;20187;-87
2024/01/24 00:33:48;;;;;;;2.93;1.20;;;7.30;99.90;;;;;;5017953;28;20194;-87
2024/01/24 00:36:14;;;;;;;3.33;1.17;;;7.30;99.90;;;;;;5020447;28;20194;-89
2024/01/24 00:38:42;;;;;;;2.10;1.30;;;7.30;99.90;;;;;;5016451;28;20183;-88
2024/01/24 00:41:08;;;;;;;2.93;1.10;;;7.30;99.90;;;;;;5029270;28;20541;-86
2024/01/24 00:43:34;;;;;;;5.43;1.70;;;7.30;99.90;;;;;;5027917;28;20219;-93
2024/01/24 00:46:00;;;;;;;5.17;1.87;;;7.30;99.90;;;;;;5015732;28;20241;-90
2024/01/24 00:48:26;;;;;;;5.73;1.30;;;7.40;99.90;;;;;;5017534;28;20191;-94
2024/01/24 00:50:53;;;;;;;3.87;1.40;;;7.40;99.90;;;;;;5016744;28;20642;-89
2024/01/24 00:53:20;;;;;;;1.77;1.30;;;7.40;99.90;;;;;;5015808;28;20198;-94
2024/01/24 00:55:47;;;;;;;2.50;1.20;;;7.40;99.90;;;;;;5023643;28;20195;-91
2024/01/24 00:58:14;;;;;;;3.97;1.23;;;7.50;99.90;;;;;;5024287;28;20191;-92
2024/01/24 01:00:39;;;;;;;2.30;1.27;;;7.50;99.90;;;;;;5018740;28;20203;-92
2024/01/24 01:03:06;;;;;;;5.73;1.73;;;7.50;99.90;;;;;;5015628;28;20186;-92
2024/01/24 01:05:31;;;;;;;3.17;1.57;;;7.50;99.90;;;;;;5024233;28;20185;-91
2024/01/24 01:08:00;;;;;;;1.83;1.20;;;7.50;99.90;;;;;;5016185;28;20195;-95
2024/01/24 01:10:26;;;;;;;3.33;1.30;;;7.60;99.90;;;;;;5007088;28;20635;-89
2024/01/24 01:12:54;;;;;;;3.33;1.30;;;7.60;99.90;;;;;;5016937;28;20193;-91
2024/01/24 01:15:20;;;;;;;5.20;1.53;;;7.60;99.90;;;;;;5018894;28;20189;-86
2024/01/24 01:17:48;;;;;;;2.00;1.10;;;7.60;99.90;;;;;;5014341;28;20191;-93
2024/01/24 01:20:18;;;;;;;2.90;1.20;;;7.60;99.90;;;;;;5008813;28;20211;-89
2024/01/24 01:22:46;;;;;;;2.30;0.93;;;7.70;99.90;;;;;;4987185;28;20258;-90
2024/01/24 01:25:14;;;;;;;3.73;1.17;;;7.70;99.90;;;;;;5004055;28;20179;-93
2024/01/24 01:27:40;;;;;;;1.53;1.00;;;7.70;99.90;;;;;;5013346;28;20234;-91
2024/01/24 01:30:07;;;;;;;2.70;1.07;;;7.70;99.90;;;;;;5021250;28;20210;-89
2024/01/24 01:32:33;;;;;;;3.83;1.10;;;7.80;99.90;;;;;;5023054;28;20191;-88
2024/01/24 01:34:59;;;;;;;2.40;1.00;;;7.80;99.90;;;;;;5365855;22;20248;-86
2024/01/24 01:37:26;;;;;;;5.97;1.17;;;7.80;99.90;;;;;;4976823;28;20196;-89
2024/01/24 01:39:52;;;;;;;2.43;1.10;;;7.80;99.90;;;;;;4986444;28;20206;-91
2024/01/24 01:42:18;;;;;;;2.60;1.10;;;7.80;99.90;;;;;;4963070;28;20208;-87
2024/01/24 01:44:47;;;;;;;3.03;1.23;;;7.80;99.90;;;;;;4992601;28;20287;-91
2024/01/24 01:47:17;;;;;;;4.80;1.40;;;7.90;99.90;;;;;;4994480;28;20215;-88
2024/01/24 01:49:45;;;;;;;5.27;1.00;;;7.90;99.90;;;;;;4987629;28;20578;-85
2024/01/24 01:52:14;;;;;;;1.67;1.17;;;7.90;99.90;;;;;;4986227;28;20203;-89
2024/01/24 01:54:43;;;;;;;3.33;1.30;;;7.90;99.90;;;;;;4993289;28;20182;-92
2024/01/24 01:57:11;;;;;;;3.83;1.03;;;7.90;99.90;;;;;;4994307;28;20192;-88
2024/01/24 01:59:40;;;;;;;3.80;1.10;;;7.90;99.90;;;;;;4994066;28;20179;-91
2024/01/24 02:02:07;;;;;;;2.47;1.10;;;7.90;99.90;;;;;;4993558;28;20244;-90
2024/01/24 02:04:33;;;;;;;1.10;0.90;;;7.90;99.90;;;;;;4978389;28;20590;-87
2024/01/24 02:07:00;;;;;;;3.00;1.20;;;7.90;99.90;;;;;;4996063;28;20219;-86
2024/01/24 02:09:27;;;;;;;2.37;1.00;;;7.90;99.90;;;;;;4996666;28;20191;-93
2024/01/24 02:11:53;;;;;;;1.10;0.90;;;8.00;99.90;;;;;;4986386;28;20271;-85
2024/01/24 02:14:19;;;;;;;2.97;1.00;;;8.10;99.90;;;;;;4985391;28;20279;-86
2024/01/24 02:16:46;;;;;;;1.77;0.80;;;8.10;99.90;;;;;;5012296;28;20694;-91
2024/01/24 02:19:12;;;;;;;1.47;0.90;;;8.30;99.90;;;;;;4983355;28;20192;-85
2024/01/24 02:21:37;;;;;;;3.13;0.80;;;8.40;99.90;;;;;;4995326;28;20540;-86
2024/01/24 02:24:08;;;;;;;2.08;0.70;;;8.50;99.90;;;;;;5000214;28;20188;-85
2024/01/24 02:26:35;;;;;;;3.23;0.87;;;8.60;99.90;;;;;;5009496;28;20192;-85
2024/01/24 02:29:01;;;;;;;2.90;0.90;;;8.60;99.90;;;;;;4985932;28;20185;-91
2024/01/24 02:31:26;;;;;;;3.97;1.20;;;8.70;99.90;;;;;;4986384;28;20326;-89
2024/01/24 02:33:52;;;;;;;2.42;0.98;;;8.70;99.90;;;;;;4985964;28;20195;-86
2024/01/24 02:36:18;;;;;;;1.48;1.00;;;8.70;99.90;;;;;;4984836;28;20233;-86
2024/01/24 02:38:44;;;;;;;2.05;0.80;;;8.70;99.90;;;;;;4988187;28;20278;-84
2024/01/24 02:41:11;;;;;;;1.98;1.10;;;8.70;99.90;;;;;;4992660;28;20208;-89
2024/01/24 02:43:37;;;;;;;2.05;1.10;;;8.70;99.90;;;;;;4986116;28;20239;-85
2024/01/24 02:46:03;;;;;;;3.85;1.30;;;8.70;99.90;;;;;;4977140;28;20188;-85
2024/01/24 02:48:30;;;;;;;2.47;1.20;;;8.60;99.90;;;;;;4985506;28;20270;-86
2024/01/24 02:50:56;;;;;;;5.50;1.20;;;8.60;99.90;;;;;;4985244;28;20187;-90
2024/01/24 02:53:21;;;;;;;2.40;1.30;;;8.70;99.90;;;;;;4995283;28;20187;-87
2024/01/24 02:55:47;;;;;;;3.23;1.60;;;8.60;99.90;;;;;;4998284;28;20184;-85
2024/01/24 02:58:13;;;;;;;3.50;1.77;;;8.60;99.90;;;;;;4997648;28;20199;-88
2024/01/24 03:00:39;;;;;;;2.07;1.17;;;8.60;99.90;;;;;;4983205;28;20231;-92
2024/01/24 03:03:06;;;;;;;3.73;1.50;;;8.60;99.90;;;;;;4987546;28;20201;-93
2024/01/24 03:05:32;;;;;;;4.10;1.80;;;8.60;99.90;;;;;;4987874;28;20191;-88
2024/01/24 03:07:59;;;;;;;4.27;1.40;;;8.60;99.90;;;;;;4981470;28;20644;-89
2024/01/24 03:10:26;;;;;;;2.30;1.52;;;8.60;99.90;;;;;;4986611;28;20192;-93
2024/01/24 03:12:53;;;;;;;3.40;1.48;;;8.60;99.90;;;;;;4993103;28;20192;-85
2024/01/24 03:15:19;;;;;;;2.03;1.40;;;8.60;99.90;;;;;;4986097;28;20239;-87
2024/01/24 03:17:48;;;;;;;2.13;1.27;;;8.70;99.90;;;;;;4979363;28;20196;-88
2024/01/24 03:20:14;;;;;;;2.90;1.20;;;8.80;99.90;;;;;;4984090;28;20184;-91
2024/01/24 03:22:43;;;;;;;2.67;1.27;;;8.90;99.90;;;;;;4996494;28;20188;-86
2024/01/24 03:25:12;;;;;;;1.37;1.03;;;8.90;99.90;;;;;;4977311;28;20187;-85
2024/01/24 03:27:38;;;;;;;1.55;1.38;;;9.00;99.90;;;;;;4978059;28;20694;-91
2024/01/24 03:30:05;;;;;;;4.40;1.65;;;9.00;99.90;;;;;;4986683;28;20188;-92
2024/01/24 03:32:31;;;;;;;4.20;1.60;;;9.10;99.90;;;;;;4985928;28;20242;-92
2024/01/24 03:35:01;;;;;;;2.35;1.70;;;9.10;99.90;;;;;;4982121;28;20177;-84
2024/01/24 03:37:27;;;;;;;1.67;1.20;;;9.10;99.90;;;;;;4991152;28;20215;-86
2024/01/24 03:39:53;;;;;;;3.22;1.60;;;9.10;99.90;;;;;;4997975;28;20219;-88
2024/01/24 03:42:19;;;;;;;1.85;1.50;;;9.20;99.90;;;;;;4983964;28;20654;-88
2024/01/24 03:44:45;;;;;;;1.63;1.23;;;9.20;99.90;;;;;;4988202;28;20184;-91
2024/01/24 03:47:12;;;;;;;3.05;1.65;;;9.30;99.90;;;;;;4983626;28;20196;-94
2024/01/24 03:49:37;;;;;;;3.10;1.63;;;9.30;99.90;;;;;;4990067;28;20568;-89
2024/01/24 03:52:04;;;;;;;3.78;1.50;;;9.30;99.90;;;;;;4977249;28;20262;-85
2024/01/24 03:54:30;;;;;;;2.30;1.50;;;9.30;99.90;;;;;;4987790;28;20181;-91
2024/01/24 03:56:56;;;;;;;1.77;1.48;;;9.30;99.90;;;;;;4978897;28;20634;-96
2024/01/24 03:59:22;;;;;;;1.52;1.23;;;9.30;99.90;;;;;;4979037;28;20192;-94
2024/01/24 04:01:47;;;;;;;2.97;1.58;;;9.20;99.90;;;;;;4997233;28;20222;-96
2024/01/24 04:04:13;;;;;;;2.78;1.55;;;9.20;99.90;;;;;;4997582;28;20191;-94
2024/01/24 04:06:39;;;;;;;4.32;1.67;;;9.20;99.90;;;;;;5004212;28;20218;-92
2024/01/24 04:09:27;;;;;;;2.47;1.30;;;9.10;99.90;;;;;;5015549;28;20183;-92
2024/01/24 04:11:55;;;;;;;1.98;1.40;;;9.10;99.90;;;;;;4977928;28;20185;-94
2024/01/24 04:14:22;;;;;;;2.42;1.38;;;9.10;99.90;;;;;;4979205;28;20286;-94
2024/01/24 04:16:48;;;;;;;3.22;1.38;;;9.10;99.90;;;;;;4979594;28;20190;-93
2024/01/24 04:19:16;;;;;;;4.50;1.65;;;9.10;99.90;;;;;;4986787;28;20191;-86
2024/01/24 04:21:45;;;;;;;3.30;1.63;;;9.20;99.90;;;;;;4981561;28;20223;-96
2024/01/24 04:24:11;;;;;;;2.95;1.70;;;9.10;99.90;;;;;;4981715;28;20635;-95
2024/01/24 04:26:39;;;;;;;4.38;1.70;;;9.10;99.90;;;;;;4977792;28;20224;-94
2024/01/24 04:29:31;;;;;;;4.90;1.70;;;9.20;99.90;;;;;;4977632;28;20612;-91
2024/01/24 04:31:57;;;;;;;5.63;1.88;;;9.20;99.90;;;;;;4978804;28;20196;-86
2024/01/24 04:34:23;;;;;;;2.63;1.52;;;9.20;99.90;;;;;;4980419;28;20188;-94
2024/01/24 04:36:49;;;;;;;7.30;1.40;;;9.30;99.90;;;;;;4983818;28;20316;-96
2024/01/24 04:39:15;;;;;;;2.03;1.83;;;9.30;99.90;;;;;;5014169;28;20190;-92
2024/01/24 04:41:43;;;;;;;5.20;1.60;;;9.30;99.90;;;;;;4981147;28;20216;-88
2024/01/24 04:44:09;;;;;;;3.75;1.55;;;9.30;99.90;;;;;;4974402;28;20191;-82
2024/01/24 04:46:35;;;;;;;2.55;1.52;;;9.30;99.90;;;;;;4973840;28;20184;-82
2024/01/24 04:49:02;;;;;;;4.60;1.75;;;9.30;99.90;;;;;;4983642;28;20627;-91
2024/01/24 04:51:28;;;;;;;3.78;2.05;;;9.40;99.90;;;;;;4991325;28;20184;-82
2024/01/24 04:53:54;;;;;;;4.07;2.33;;;9.40;99.90;;;;;;4982104;28;20195;-83
2024/01/24 04:56:20;;;;;;;3.35;2.65;;;9.60;99.90;;;;;;4975260;28;20188;-83
2024/01/24 04:58:46;;;;;;;4.05;2.90;;;9.80;99.90;;;;;;4975691;28;20214;-86
2024/01/24 05:01:12;;;;;;;4.50;3.95;;;10.00;99.90;;;;;;4980764;28;20223;-85
2024/01/24 05:03:37;;;;;;;5.85;3.60;;;10.30;99.90;;;;;;4976568;28;20185;-83
2024/01/24 05:06:04;;;;;;;4.97;3.10;;;10.40;99.90;;;;;;4982027;28;20196;-84
2024/01/24 05:08:31;;;;;;;3.33;2.80;;;10.50;99.90;;;;;;4974607;28;20184;-87
2024/01/24 05:10:57;;;;;;;4.95;2.70;;;10.60;99.90;;;;;;4974254;28;20231;-84
2024/01/24 05:13:23;;;;;;;3.72;2.17;;;10.80;99.90;;;;;;4974306;28;20298;-83
2024/01/24 05:15:49;;;;;;;7.15;2.78;;;10.80;99.90;;;;;;4984332;28;20176;-82
2024/01/24 05:18:15;;;;;;;5.70;2.63;;;10.90;99.90;;;;;;4975056;28;20189;-82
2024/01/24 05:20:41;;;;;;;4.88;2.25;;;11.00;99.90;;;;;;4974435;28;20216;-89
2024/01/24 05:23:07;;;;;;;5.43;2.80;;;11.10;99.90;;;;;;4972810;28;20214;-84
2024/01/24 05:25:34;;;;;;;4.78;1.73;;;11.20;99.90;;;;;;4975986;28;20228;-88
2024/01/24 05:28:01;;;;;;;4.22;1.25;;;11.20;99.90;;;;;;4983462;28;20188;-85
2024/01/24 05:30:27;;;;;;;8.27;1.55;;;10.80;99.90;;;;;;4990428;28;20250;-83
2024/01/24 05:32:57;;;;;;;6.93;1.60;;;10.50;99.90;;;;;;4984158;28;20189;-88
2024/01/24 05:35:23;;;;;;;9.75;2.00;;;10.20;99.90;;;;;;4980474;28;20251;-85
2024/01/24 05:37:49;;;;;;;8.63;1.90;;;10.00;99.90;;;;;;4984391;28;20192;-83
2024/01/24 05:40:17;;;;;;;13.30;2.20;;;9.90;99.90;;;;;;4992155;28;20187;-82
2024/01/24 05:42:43;;;;;;;7.47;1.80;;;9.80;99.90;;;;;;4996577;28;20271;-85
2024/01/24 05:45:10;;;;;;;8.85;1.98;;;9.70;99.90;;;;;;4984734;28;20189;-88
2024/01/24 05:47:37;;;;;;;9.02;1.45;;;9.70;99.90;;;;;;4987024;28;20184;-84
2024/01/24 05:50:12;;;;;;;8.05;1.80;;;9.80;99.90;;;;;;4999437;28;20183;-86
2024/01/24 05:52:47;;;;;;;8.38;1.75;;;9.90;99.90;;;;;;4989195;28;20222;-85
2024/01/24 05:55:13;;;;;;;10.93;1.83;;;10.00;99.90;;;;;;4983821;28;20578;-86
2024/01/24 05:57:41;;;;;;;7.20;1.65;;;10.00;99.90;;;;;;4996404;28;20190;-86
2024/01/24 06:00:09;;;;;;;12.55;2.05;;;10.00;99.90;;;;;;4977763;28;20184;-87
2024/01/24 06:02:38;;;;;;;13.10;1.58;;;10.10;99.90;;;;;;5002591;28;20192;-86
2024/01/24 06:05:04;;;;;;;7.65;1.25;;;10.00;99.90;;;;;;4989338;28;20250;-83
2024/01/24 06:07:31;;;;;;;5.47;1.48;;;10.10;99.90;;;;;;4990026;28;20191;-85
2024/01/24 06:09:57;;;;;;;7.05;1.27;;;10.10;99.90;;;;;;4983510;28;20179;-86
2024/01/24 06:12:23;;;;;;;5.85;1.20;;;10.10;99.90;;;;;;5001264;28;20192;-86
2024/01/24 06:14:49;;;;;;;4.65;1.20;;;10.40;99.90;;;;;;4988551;28;20187;-86
2024/01/24 06:17:16;;;;;;;3.53;0.70;;;10.40;99.90;;;;;;5004869;28;20184;-86
2024/01/24 06:19:45;;;;;;;6.22;0.98;;;10.40;99.90;;;;;;4990689;28;20653;-86
2024/01/24 06:22:11;;;;;;;5.30;1.00;;;10.50;99.90;;;;;;5001366;28;20256;-87
2024/01/24 06:24:37;;;;;;;4.65;1.13;;;10.70;99.90;;;;;;4999831;28;20278;-89
2024/01/24 06:27:03;;;;;;;4.93;0.90;;;10.70;99.90;;;;;;4977985;28;20623;-86
2024/01/24 06:29:29;;;;;;;6.72;0.90;;;10.60;99.90;;;;;;4993311;28;20184;-82
2024/01/24 06:31:57;;;;;;;4.70;1.48;;;10.40;99.90;;;;;;4994101;28;20185;-86
2024/01/24 06:34:23;;;;;;;6.75;1.38;;;10.50;99.90;;;;;;4992993;28;20573;-86
2024/01/24 06:36:51;;;;;;;8.02;1.38;;;10.50;99.90;;;;;;4978428;28;20238;-83
2024/01/24 06:39:17;;;;;;;8.88;1.30;;;10.40;99.90;;;;;;4985837;28;20653;-85
2024/01/24 06:41:46;;;;;;;6.00;1.00;;;10.50;99.90;;;;;;4987060;28;20231;-83
2024/01/24 06:44:12;;;;;;;11.20;1.67;;;10.40;99.90;;;;;;4986912;28;20530;-86
2024/01/24 06:46:44;;;;;;;5.80;1.08;;;10.40;99.90;;;;;;4993981;28;20246;-85
2024/01/24 06:49:11;;;;;;;7.45;1.60;;;10.50;99.90;;;;;;4994316;28;20537;-84
2024/01/24 06:51:38;;;;;;;6.10;1.27;;;10.50;99.90;;;;;;4997956;28;20195;-83
2024/01/24 06:54:05;;;;;;;9.50;1.73;;;10.70;99.90;;;;;;4976687;28;20234;-83
2024/01/24 06:56:31;;;;;;;12.10;1.60;;;10.60;99.90;;;;;;4992727;28;20215;-89
2024/01/24 06:58:57;;;;;;;9.27;1.77;;;10.60;99.90;;;;;;4986092;28;20180;-83
2024/01/24 07:01:23;;;;;;;11.05;1.58;;;10.60;99.90;;;;;;5009675;28;20220;-83
2024/01/24 07:03:49;;;;;;;10.40;1.60;;;10.50;99.90;;;;;;4980058;28;20223;-83
2024/01/24 07:06:15;;;;;;;8.88;1.73;;;10.40;99.90;;;;;;4989685;28;20219;-84
2024/01/24 07:08:42;;;;;;;10.00;2.13;;;10.40;99.90;;;;;;4997323;28;20563;-88
2024/01/24 07:11:09;;;;;;;7.20;1.67;;;10.40;99.90;;;;;;4997797;28;20180;-85
2024/01/24 07:13:35;;;;;;;10.77;2.25;;;10.40;99.90;;;;;;4988325;28;20200;-87
2024/01/24 07:16:04;;;;;;;11.73;2.63;;;10.40;99.90;;;;;;4994649;28;20184;-86
2024/01/24 07:18:31;;;;;;;10.82;1.88;;;10.30;99.90;;;;;;4984633;28;20189;-82
2024/01/24 07:20:57;;;;;;;9.77;1.90;;;10.30;99.90;;;;;;4976658;28;20212;-85
2024/01/24 07:23:24;;;;;;;8.80;1.30;;;10.20;99.90;;;;;;4986578;28;20195;-83
2024/01/24 07:25:50;;;;;;;6.88;1.52;;;10.10;99.90;;;;;;4998507;28;20265;-86
2024/01/24 07:28:16;;;;;;;5.65;1.20;;;10.10;99.90;;;;;;4984368;28;20187;-93
2024/01/24 07:30:42;;;;;;;7.05;1.48;;;10.10;99.90;;;;;;4988282;28;20188;-83
2024/01/24 07:33:08;;;;;;;6.57;1.48;;;10.10;99.90;;;;;;4991672;28;20219;-83
2024/01/24 07:35:34;;;;;;;8.30;1.83;;;10.10;99.90;;;;;;4984326;28;20235;-85
2024/01/24 07:38:00;;;;;;;9.43;1.45;;;10.10;99.90;;;;;;4988072;28;20191;-90
2024/01/24 07:40:26;;;;;;;7.72;1.60;;;10.10;99.90;;;;;;5008081;28;20179;-84
2024/01/24 07:42:52;;;;;;;8.52;2.00;;;10.10;99.90;;;;;;4977747;28;20283;-90
2024/01/24 07:45:18;;;;;;;14.57;2.28;;;10.30;99.90;;;;;;5009673;28;20193;-90
2024/01/24 07:47:45;;;;;;;9.57;2.20;;;10.10;99.90;;;;;;4993592;28;20204;-91
2024/01/24 07:50:16;;;;;;;10.57;2.75;;;10.10;99.90;;;;;;4977241;28;20196;-87
2024/01/24 07:52:43;;;;;;;13.25;2.40;;;10.10;99.90;;;;;;4985578;28;20203;-95
2024/01/24 07:55:12;;;;;;;9.13;1.73;;;9.70;99.90;;;;;;5009159;28;20509;-85
2024/01/24 07:57:39;;;;;;;11.65;2.00;;;9.40;99.90;;;;;;4975366;28;20195;-83
2024/01/24 08:00:05;;;;;;;10.17;2.33;;;9.30;99.90;;;;;;4974290;28;20223;-83
2024/01/24 08:02:32;;;;;;;15.40;2.40;;;9.10;99.90;;;;;;4980009;28;20216;-86
2024/01/24 08:04:58;;;;;;;13.35;2.63;;;9.00;99.90;;;;;;4975582;28;20291;-84
2024/01/24 08:07:24;;;;;;;18.75;3.30;;;9.00;99.90;;;;;;4979868;28;20185;-81
2024/01/24 08:09:51;;;;;;;9.93;2.40;;;9.00;99.90;;;;;;4976129;28;20191;-86
2024/01/24 08:12:18;;;;;;;9.25;2.10;;;9.00;99.90;;;;;;4986634;28;20183;-83
2024/01/24 08:14:44;;;;;;;14.68;2.70;;;9.10;99.90;;;;;;4977219;28;20184;-82
2024/01/24 08:17:14;;;;;;;22.90;3.38;;;9.20;99.90;;;;;;4980306;28;20279;-84
2024/01/24 08:19:40;;;;;;;22.10;2.97;;;9.30;99.90;;;;;;4973952;28;20191;-85
2024/01/24 08:22:06;;;;;;;13.47;3.27;;;9.40;99.90;;;;;;4980876;28;20537;-86
2024/01/24 08:24:33;;;;;;;20.08;3.55;;;9.50;99.90;;;;;;4982806;28;20270;-87
2024/01/24 08:26:59;;;;;;;17.48;2.95;;;9.70;99.90;;;;;;4981954;28;20282;-87
2024/01/24 08:29:26;;;;;;;15.57;2.78;;;9.70;99.90;;;;;;4977207;28;20183;-87
2024/01/24 08:31:52;;;;;;;18.08;3.63;;;9.70;99.90;;;;;;4984112;28;20241;-88
2024/01/24 08:34:20;;;;;;;16.75;4.75;;;9.80;99.90;;;;;;4989596;28;20180;-85
2024/01/24 08:36:46;;;;;;;23.05;4.07;;;9.80;99.90;;;;;;4985204;28;20234;-86
2024/01/24 08:39:12;;;;;;;26.33;3.97;;;9.70;99.90;;;;;;4987913;28;21025;-89
2024/01/24 08:41:40;;;;;;;17.65;3.40;;;9.80;99.90;;;;;;4994486;28;20610;-93
2024/01/24 08:44:06;;;;;;;20.40;3.90;;;9.90;99.90;;;;;;4991295;28;20183;-86
2024/01/24 08:46:32;;;;;;;20.05;3.95;;;9.70;99.90;;;;;;4997508;28;20769;-86
2024/01/24 08:48:58;;;;;;;19.77;3.40;;;9.70;99.90;;;;;;4989808;28;20234;-85
2024/01/24 08:51:29;;;;;;;19.58;3.60;;;9.70;99.90;;;;;;4989646;28;20278;-87
2024/01/24 08:53:55;;;;;;;19.80;3.72;;;9.70;99.90;;;;;;4990204;28;20654;-83
2024/01/24 08:56:21;;;;;;;21.85;4.43;;;9.70;99.90;;;;;;4990095;28;20188;-83
2024/01/24 08:58:47;;;;;;;20.35;4.03;;;9.70;99.90;;;;;;4989589;28;20242;-84
2024/01/24 09:01:13;;;;;;;19.27;4.13;;;9.70;99.90;;;;;;4991272;28;20278;-83
2024/01/24 09:03:39;;;;;;;27.48;5.30;;;9.60;99.90;;;;;;4990984;28;20198;-82
2024/01/24 09:06:05;;;;;;;20.60;4.47;;;9.60;99.90;;;;;;4988676;28;20180;-84
2024/01/24 09:08:31;;;;;;;23.95;4.82;;;9.70;99.90;;;;;;4988754;28;20223;-83
2024/01/24 09:10:57;;;;;;;26.75;4.18;;;9.80;99.90;;;;;;4987498;28;20231;-83
2024/01/24 09:13:23;;;;;;;19.23;3.75;;;10.00;99.90;;;;;;4991326;28;21123;-84
2024/01/24 09:15:49;;;;;;;24.23;4.90;;;9.90;99.90;;;;;;4989794;28;20187;-84
2024/01/24 09:18:18;;;;;;;23.25;4.15;;;9.80;99.90;;;;;;4985872;28;20183;-86
2024/01/24 09:20:45;;;;;;;25.73;4.20;;;10.00;99.90;;;;;;4988194;28;20212;-83
2024/01/24 09:23:10;;;;;;;18.10;3.88;;;10.10;99.90;;;;;;4992046;28;20218;-85
2024/01/24 09:25:36;;;;;;;21.10;4.10;;;10.00;99.90;;;;;;4991309;28;20188;-84
2024/01/24 09:28:02;;;;;;;12.35;3.58;;;10.30;99.90;;;;;;5009464;28;20192;-85
2024/01/24 09:30:30;;;;;;;29.52;4.88;;;10.30;99.90;;;;;;4991015;28;20183;-84
2024/01/24 09:32:56;;;;;;;21.70;4.65;;;10.40;99.90;;;;;;4991094;28;20199;-86
2024/01/24 09:35:22;;;;;;;24.65;4.07;;;10.30;99.90;;;;;;4992691;28;20574;-84
2024/01/24 09:37:48;;;;;;;21.20;4.15;;;10.30;99.90;;;;;;4989176;28;20576;-84
2024/01/24 09:40:15;;;;;;;18.95;4.70;;;10.20;99.90;;;;;;4988825;28;20235;-83
2024/01/24 09:42:42;;;;;;;21.17;3.97;;;10.40;99.90;;;;;;4988778;28;20195;-86
2024/01/24 09:45:09;;;;;;;21.60;4.03;;;10.30;99.90;;;;;;4992025;28;20638;-85
2024/01/24 09:47:35;;;;;;;19.05;3.97;;;10.20;99.90;;;;;;4993796;28;20274;-86
2024/01/24 09:50:05;;;;;;;19.15;3.95;;;10.20;99.90;;;;;;4990839;28;20501;-90
2024/01/24 09:52:37;;;;;;;28.20;4.78;;;10.20;99.90;;;;;;4992448;28;20271;-85
2024/01/24 09:55:04;;;;;;;21.65;4.18;;;10.20;99.90;;;;;;4990603;28;20176;-85
2024/01/24 09:57:32;;;;;;;21.90;3.95;;;10.20;99.90;;;;;;4988791;28;20181;-86
2024/01/24 09:59:58;;;;;;;15.15;3.58;;;10.20;99.90;;;;;;4989603;28;20905;-85
2024/01/24 10:02:28;;;;;;;23.00;4.57;;;10.30;99.90;;;;;;4990486;28;20302;-83
2024/01/24 10:04:54;;;;;;;21.73;3.70;;;10.30;99.90;;;;;;4992881;28;20327;-84
2024/01/24 10:07:20;;;;;;;26.02;4.28;;;10.20;99.90;;;;;;4986933;28;20180;-87
2024/01/24 10:09:47;;;;;;;21.38;3.53;;;10.10;99.90;;;;;;4992252;28;20192;-86
2024/01/24 10:12:13;;;;;;;22.60;4.40;;;10.00;99.90;;;;;;4992182;28;20192;-90
2024/01/24 10:14:43;;;;;;;15.15;3.40;;;9.90;99.90;;;;;;4989794;28;20176;-91
2024/01/24 10:17:13;;;;;;;21.35;3.70;;;10.00;99.90;;;;;;5010603;28;20210;-86
2024/01/24 10:19:39;;;;;;;21.50;3.83;;;9.90;99.90;;;;;;4990050;28;20179;-86
2024/01/24 10:22:07;;;;;;;18.10;4.03;;;9.90;99.90;;;;;;4991459;28;20215;-87
2024/01/24 10:24:35;;;;;;;20.63;3.38;;;10.00;99.90;;;;;;4989553;28;20275;-85
2024/01/24 10:27:01;;;;;;;14.85;3.33;;;9.80;99.90;;;;;;4992649;28;20705;-85
2024/01/24 10:29:29;;;;;;;18.45;3.92;;;9.60;99.90;;;;;;4992060;28;20235;-88
2024/01/24 10:31:59;;;;;;;25.92;4.70;;;9.50;99.90;;;;;;4988400;28;20622;-85
2024/01/24 10:34:28;;;;;;;23.05;4.30;;;9.50;99.90;;;;;;4991211;28;20191;-86
2024/01/24 10:36:54;;;;;;;20.73;4.45;;;9.70;99.90;;;;;;4987906;28;20633;-84
2024/01/24 10:39:22;;;;;;;22.70;4.25;;;9.70;99.90;;;;;;4992953;28;20230;-85
2024/01/24 10:41:54;;;;;;;17.45;3.55;;;9.60;99.90;;;;;;4988204;28;20211;-85
2024/01/24 10:44:24;;;;;;;22.30;4.65;;;9.70;99.90;;;;;;4991764;28;20180;-85
2024/01/24 10:46:51;;;;;;;20.58;3.63;;;9.70;99.90;;;;;;4993245;28;20188;-85
2024/01/24 10:49:18;;;;;;;24.58;5.25;;;9.60;99.90;;;;;;4991656;28;20191;-86
2024/01/24 10:51:47;;;;;;;22.92;4.97;;;9.60;99.90;;;;;;4993546;28;20198;-85
2024/01/24 10:54:18;;;;;;;27.05;4.70;;;9.70;99.90;;;;;;4993279;28;20198;-85
2024/01/24 10:56:50;;;;;;;21.20;4.25;;;9.80;99.90;;;;;;4990315;28;20250;-85
2024/01/24 10:59:17;;;;;;;26.80;4.40;;;9.80;99.90;;;;;;4976625;28;20212;-85
2024/01/24 11:01:44;;;;;;;18.95;3.70;;;9.80;99.90;;;;;;4985490;28;20216;-83
2024/01/24 11:04:14;;;;;;;23.67;5.05;;;9.90;99.90;;;;;;4983410;28;20180;-85
2024/01/24 11:07:07;;;;;;;27.13;5.18;;;9.90;99.90;;;;;;4989500;28;20188;-84
2024/01/24 11:09:53;;;;;;;25.38;4.72;;;9.80;99.90;;;;;;4983375;28;20271;-87
2024/01/24 11:12:20;;;;;;;25.58;4.15;;;9.80;99.90;;;;;;4975352;28;20631;-85
2024/01/24 11:14:51;;;;;;;24.67;4.38;;;9.90;99.90;;;;;;5007905;28;20243;-85
2024/01/24 11:17:17;;;;;;;24.83;4.00;;;9.90;99.90;;;;;;5007967;28;20219;-85
2024/01/24 11:19:42;;;;;;;17.77;3.97;;;9.80;99.90;;;;;;4977588;28;20212;-86
2024/01/24 11:22:10;;;;;;;23.85;4.97;;;9.90;99.90;;;;;;4981706;28;20675;-84
2024/01/24 11:24:43;;;;;;;21.27;4.30;;;10.00;99.90;;;;;;4975048;28;20635;-85
2024/01/24 11:27:33;;;;;;;26.45;5.22;;;10.10;99.90;;;;;;4983087;28;20258;-85
2024/01/24 11:30:37;;;;;;;30.30;5.30;;;10.00;99.90;;;;;;4991443;28;20554;-88
2024/01/24 11:33:04;;;;;;;26.23;4.72;;;9.90;99.90;;;;;;4980811;28;20254;-86
2024/01/24 11:35:40;;;;;;;22.50;4.65;;;10.00;99.90;;;;;;4986571;28;20270;-88
2024/01/24 11:38:27;;;;;;;26.50;5.07;;;9.90;99.90;;;;;;4996337;28;20179;-85
2024/01/24 11:41:00;;;;;;;24.48;4.60;;;9.90;99.90;;;;;;4984133;28;20218;-87
2024/01/24 11:43:28;;;;;;;30.02;4.90;;;10.00;99.90;;;;;;4976603;28;20180;-91
2024/01/24 11:46:03;;;;;;;19.33;4.05;;;10.10;99.90;;;;;;4983083;28;20200;-89
2024/01/24 11:48:36;;;;;;;23.23;5.05;;;10.00;99.90;;;;;;4975585;28;20187;-86
2024/01/24 11:51:04;;;;;;;25.95;5.38;;;10.10;99.90;;;;;;4976477;28;20519;-90
2024/01/24 11:53:30;;;;;;;28.10;4.20;;;10.00;99.90;;;;;;4974515;28;20180;-87
2024/01/24 11:56:05;;;;;;;20.33;4.35;;;10.10;99.90;;;;;;4982683;28;20662;-86
2024/01/24 11:58:31;;;;;;;22.17;4.63;;;9.90;99.90;;;;;;4990201;28;20194;-86
2024/01/24 12:01:01;;;;;;;27.60;4.93;;;10.00;99.90;;;;;;4976176;28;20236;-86
2024/01/24 12:03:27;;;;;;;17.05;3.65;;;9.90;99.90;;;;;;4977157;28;20267;-87
2024/01/24 12:05:54;;;;;;;25.38;5.70;;;10.10;99.90;;;;;;4984640;28;20176;-87
2024/01/24 12:08:21;;;;;;;25.13;4.50;;;10.00;99.90;;;;;;4983710;28;20283;-87
2024/01/24 12:10:47;;;;;;;20.60;4.45;;;10.00;99.90;;;;;;4983749;28;20517;-87
2024/01/24 12:13:15;;;;;;;29.83;5.55;;;10.00;99.90;;;;;;4975572;28;20192;-86
2024/01/24 12:15:44;;;;;;;20.88;4.07;;;10.00;99.90;;;;;;4975245;28;20534;-87
2024/01/24 12:18:16;;;;;;;21.48;4.93;;;10.00;99.90;;;;;;4983307;28;20568;-82
2024/01/24 12:20:46;;;;;;;24.75;4.57;;;10.00;99.90;;;;;;4975097;28;20200;-81
2024/01/24 12:23:13;;;;;;;18.95;4.38;;;10.10;99.90;;;;;;4979529;28;20326;-81
2024/01/24 12:25:39;;;;;;;27.48;4.38;;;10.00;99.90;;;;;;4985994;28;20700;-81
2024/01/24 12:28:06;;;;;;;24.65;4.72;;;9.90;99.90;;;;;;4974991;28;20185;-81
2024/01/24 12:30:35;;;;;;;23.80;4.68;;;9.90;99.90;;;;;;4982263;28;20493;-83
2024/01/24 12:33:03;;;;;;;28.52;5.03;;;9.90;99.90;;;;;;4975139;28;20650;-81
2024/01/24 12:35:29;;;;;;;19.35;3.97;;;9.90;99.90;;;;;;4979113;28;20254;-82
2024/01/24 12:38:04;;;;;;;14.57;3.83;;;10.00;99.90;;;;;;4982636;28;20188;-96
2024/01/24 12:40:31;;;;;;;27.27;5.15;;;10.10;99.90;;;;;;4973599;28;20578;-83
2024/01/24 12:42:59;;;;;;;25.27;4.47;;;9.90;99.90;;;;;;4974649;28;20199;-82
2024/01/24 12:45:26;;;;;;;23.65;5.05;;;9.90;99.90;;;;;;4983228;28;20186;-87
2024/01/24 12:47:53;;;;;;;19.75;4.65;;;10.00;99.90;;;;;;4973314;28;20200;-84
2024/01/24 12:50:20;;;;;;;25.10;4.82;;;9.90;99.90;;;;;;4974839;28;20192;-82